createdAt,value
2018-07-11T00:01:59.008Z,15.83
2018-07-11T00:04:33.879Z,17.23
2018-07-11T00:07:08.752Z,13.93
2018-07-11T00:09:44.069Z,16.40
2018-07-11T00:12:18.905Z,20.17
2018-07-11T00:14:53.746Z,17.17
2018-07-11T00:17:28.752Z,20.62
2018-07-11T00:20:03.550Z,21.73
2018-07-11T00:22:38.473Z,15.93
2018-07-11T00:25:13.489Z,16.02
2018-07-11T00:27:48.400Z,21.17
2018-07-11T00:30:22.729Z,17.77
2018-07-11T00:32:57.659Z,15.68
2018-07-11T00:35:32.529Z,19.45
2018-07-11T00:38:07.427Z,16.07
2018-07-11T00:40:43.344Z,15.25
2018-07-11T00:43:18.251Z,15.15
2018-07-11T00:45:53.705Z,15.15
2018-07-11T00:48:28.555Z,13.70
2018-07-11T00:51:04.065Z,14.10
2018-07-11T00:53:38.945Z,12.82
2018-07-11T00:56:13.233Z,15.20
2018-07-11T00:59:10.376Z,16.42
2018-07-11T01:01:45.281Z,14.50
2018-07-11T01:04:20.191Z,12.85
2018-07-11T01:06:55.070Z,13.55
2018-07-11T01:09:31.219Z,12.82
2018-07-11T01:12:07.089Z,12.45
2018-07-11T01:14:41.927Z,10.35
2018-07-11T01:18:20.423Z,9.93
2018-07-11T01:20:56.242Z,11.78
2018-07-11T01:23:31.491Z,12.68
2018-07-11T01:26:13.812Z,10.75
2018-07-11T01:28:48.746Z,11.50
2018-07-11T01:31:25.100Z,11.35
2018-07-11T01:34:00.332Z,16.80
2018-07-11T01:36:35.178Z,9.35
2018-07-11T01:39:09.962Z,10.85
2018-07-11T01:41:44.799Z,11.90
2018-07-11T01:44:19.560Z,10.18
2018-07-11T01:46:55.400Z,12.78
2018-07-11T01:49:30.261Z,8.40
2018-07-11T01:52:16.025Z,13.72
2018-07-11T01:54:51.843Z,11.25
2018-07-11T01:57:26.708Z,6.58
2018-07-11T02:00:02.572Z,14.03
2018-07-11T02:02:37.437Z,7.42
2018-07-11T02:05:13.303Z,11.60
2018-07-11T02:07:48.179Z,8.65
2018-07-11T02:10:23.142Z,11.18
2018-07-11T02:12:59.752Z,9.25
2018-07-11T02:15:34.657Z,12.13
2018-07-11T02:18:08.982Z,9.10
2018-07-11T02:20:43.278Z,8.58
2018-07-11T02:23:18.227Z,8.98
2018-07-11T02:25:52.557Z,8.70
2018-07-11T02:28:27.436Z,9.70
2018-07-11T02:31:02.421Z,13.28
2018-07-11T02:33:37.300Z,10.45
2018-07-11T02:36:13.107Z,11.75
2018-07-11T02:38:48.989Z,9.78
2018-07-11T02:41:23.802Z,9.63
2018-07-11T02:43:58.748Z,9.08
2018-07-11T02:46:38.815Z,9.90
2018-07-11T02:49:13.640Z,10.78
2018-07-11T02:51:48.771Z,9.68
2018-07-11T02:54:23.626Z,12.00
2018-07-11T02:56:58.881Z,10.98
2018-07-11T02:59:34.061Z,9.73
2018-07-11T03:02:16.419Z,10.23
2018-07-11T03:04:58.082Z,9.25
2018-07-11T03:07:34.080Z,10.88
2018-07-11T03:10:09.929Z,14.73
2018-07-11T03:12:44.776Z,10.32
2018-07-11T03:15:19.568Z,13.22
2018-07-11T03:17:55.436Z,9.18
2018-07-11T03:20:30.320Z,13.58
2018-07-11T03:23:05.604Z,12.25
2018-07-11T03:25:40.534Z,12.07
2018-07-11T03:28:15.596Z,9.38
2018-07-11T03:30:50.488Z,11.22
2018-07-11T03:33:25.279Z,13.30
2018-07-11T03:36:01.068Z,13.15
2018-07-11T03:38:35.907Z,10.10
2018-07-11T03:41:10.819Z,11.25
2018-07-11T03:43:45.924Z,13.93
2018-07-11T03:46:20.688Z,16.70
2018-07-11T03:48:55.491Z,11.20
2018-07-11T03:51:29.934Z,13.03
2018-07-11T03:54:04.783Z,17.60
2018-07-11T03:56:46.464Z,13.13
2018-07-11T03:59:21.334Z,12.45
2018-07-11T04:01:57.172Z,19.85
2018-07-11T04:04:31.985Z,13.58
2018-07-11T04:07:06.821Z,12.47
2018-07-11T04:09:42.697Z,14.60
2018-07-11T04:12:18.463Z,14.00
2018-07-11T04:14:53.731Z,20.10
2018-07-11T04:17:28.508Z,17.50
2018-07-11T04:20:03.374Z,16.52
2018-07-11T04:22:38.226Z,16.70
2018-07-11T04:25:13.426Z,13.60
2018-07-11T04:27:48.566Z,13.98
2018-07-11T04:30:22.882Z,15.40
2018-07-11T04:32:57.911Z,15.28
2018-07-11T04:35:32.272Z,12.30
2018-07-11T04:38:07.104Z,17.70
2018-07-11T04:40:42.022Z,17.02
2018-07-11T04:43:17.154Z,18.67
2018-07-11T04:45:52.253Z,17.00
2018-07-11T04:48:27.216Z,18.15
2018-07-11T04:51:02.125Z,23.57
2018-07-11T04:53:37.031Z,19.45
2018-07-11T04:56:11.909Z,17.45
2018-07-11T04:58:46.816Z,14.98
2018-07-11T05:01:21.775Z,15.68
2018-07-11T05:03:56.700Z,16.93
2018-07-11T05:06:31.492Z,13.70
2018-07-11T05:09:08.567Z,13.35
2018-07-11T05:11:49.345Z,14.53
2018-07-11T05:14:24.270Z,16.60
2018-07-11T05:16:58.626Z,17.05
2018-07-11T05:19:33.478Z,15.03
2018-07-11T05:22:08.280Z,16.95
2018-07-11T05:24:43.140Z,14.45
2018-07-11T05:27:17.932Z,14.43
2018-07-11T05:29:52.765Z,15.35
2018-07-11T05:32:27.909Z,14.68
2018-07-11T05:35:19.684Z,14.33
2018-07-11T05:38:05.729Z,14.25
2018-07-11T05:40:44.835Z,16.23
2018-07-11T05:43:22.615Z,14.68
2018-07-11T05:45:59.932Z,10.82
2018-07-11T05:48:35.653Z,14.58
2018-07-11T05:51:10.810Z,10.90
2018-07-11T05:53:47.628Z,18.37
2018-07-11T05:56:24.674Z,9.95
2018-07-11T05:59:01.812Z,13.80
2018-07-11T06:01:37.261Z,15.18
2018-07-11T06:04:12.616Z,10.98
2018-07-11T06:06:58.033Z,15.32
2018-07-11T06:09:32.872Z,16.67
2018-07-11T06:12:09.035Z,18.00
2018-07-11T06:14:43.868Z,16.25
2018-07-11T06:17:19.900Z,16.67
2018-07-11T06:19:55.751Z,16.05
2018-07-11T06:22:30.527Z,16.55
2018-07-11T06:25:05.394Z,12.58
2018-07-11T06:27:41.240Z,19.90
2018-07-11T06:30:16.032Z,17.57
2018-07-11T06:32:50.849Z,13.88
2018-07-11T06:35:25.673Z,15.48
2018-07-11T06:38:01.465Z,17.92
2018-07-11T06:40:36.352Z,15.72
2018-07-11T06:43:11.148Z,12.30
2018-07-11T06:45:46.967Z,18.42
2018-07-11T06:48:21.747Z,17.45
2018-07-11T06:50:56.672Z,12.90
2018-07-11T06:53:31.477Z,15.38
2018-07-11T06:56:06.305Z,15.38
2018-07-11T06:58:41.176Z,18.60
2018-07-11T07:01:16.134Z,13.55
2018-07-11T07:03:50.942Z,15.15
2018-07-11T07:06:25.716Z,16.05
2018-07-11T07:09:00.692Z,14.98
2018-07-11T07:11:35.532Z,12.35
2018-07-11T07:14:10.315Z,17.32
2018-07-11T07:16:45.113Z,13.75
2018-07-11T07:19:20.425Z,12.18
2018-07-11T07:21:55.525Z,11.68
2018-07-11T07:24:31.344Z,11.60
2018-07-11T07:27:06.183Z,10.65
2018-07-11T07:29:40.980Z,11.43
2018-07-11T07:32:15.752Z,11.08
2018-07-11T07:34:50.693Z,11.22
2018-07-11T07:37:26.508Z,11.03
2018-07-11T07:40:01.284Z,12.18
2018-07-11T07:42:36.064Z,14.60
2018-07-11T07:45:10.968Z,15.32
2018-07-11T07:47:46.257Z,14.55
2018-07-11T07:50:21.084Z,14.15
2018-07-11T07:52:56.048Z,13.70
2018-07-11T07:55:31.940Z,11.50
2018-07-11T07:58:07.980Z,14.00
2018-07-11T08:00:42.308Z,11.40
2018-07-11T08:03:16.614Z,15.43
2018-07-11T08:05:52.392Z,9.98
2018-07-11T08:08:28.161Z,10.05
2018-07-11T08:11:02.992Z,14.35
2018-07-11T08:13:37.825Z,7.50
2018-07-11T08:16:13.629Z,10.43
2018-07-11T08:18:47.902Z,14.07
2018-07-11T08:21:23.763Z,13.35
2018-07-11T08:24:09.663Z,8.00
2018-07-11T08:26:55.411Z,8.68
2018-07-11T08:29:41.253Z,8.05
2018-07-11T08:32:34.222Z,8.33
2018-07-11T08:36:27.911Z,7.33
2018-07-11T08:39:13.738Z,8.63
2018-07-11T08:44:08.150Z,7.85
2018-07-11T08:51:04.072Z,6.58
2018-07-11T08:53:50.665Z,9.10
2018-07-11T08:56:36.685Z,9.50
2018-07-11T08:59:18.073Z,11.70
2018-07-11T09:02:06.856Z,12.28
2018-07-11T09:04:48.402Z,10.72
2018-07-11T09:09:35.224Z,13.62
2018-07-11T09:12:23.752Z,9.95
2018-07-11T09:17:20.418Z,12.00
2018-07-11T09:21:05.068Z,12.25
2018-07-11T09:24:47.060Z,11.35
2018-07-11T09:27:21.905Z,10.30
2018-07-11T09:29:57.016Z,13.38
2018-07-11T09:32:31.830Z,11.78
2018-07-11T09:35:07.749Z,12.47
2018-07-11T09:37:42.576Z,12.90
2018-07-11T09:40:17.409Z,11.12
2018-07-11T09:42:52.300Z,10.70
2018-07-11T09:45:28.058Z,9.78
2018-07-11T09:48:02.857Z,10.28
2018-07-11T09:50:37.629Z,10.95
2018-07-11T09:53:12.680Z,8.03
2018-07-11T09:55:47.542Z,12.45
2018-07-11T09:58:22.381Z,12.05
2018-07-11T10:01:02.451Z,9.18
2018-07-11T10:03:37.271Z,9.55
2018-07-11T10:06:12.168Z,13.00
2018-07-11T10:08:46.975Z,12.60
2018-07-11T10:11:21.768Z,11.45
2018-07-11T10:13:56.536Z,8.45
2018-07-11T10:16:31.616Z,10.80
2018-07-11T10:19:06.709Z,8.40
2018-07-11T10:21:42.650Z,9.43
2018-07-11T10:24:17.687Z,7.70
2018-07-11T10:26:52.506Z,11.22
2018-07-11T10:29:27.213Z,7.08
2018-07-11T10:32:02.028Z,7.08
2018-07-11T10:34:36.835Z,7.85
2018-07-11T10:37:11.619Z,9.25
2018-07-11T10:39:46.348Z,8.50
2018-07-11T10:42:21.213Z,10.03
2018-07-11T10:44:56.075Z,10.28
2018-07-11T10:47:30.525Z,7.67
2018-07-11T10:50:05.263Z,6.97
2018-07-11T10:52:40.085Z,5.45
2018-07-11T10:55:15.823Z,6.17
2018-07-11T10:57:50.976Z,6.40
2018-07-11T11:00:36.657Z,5.85
2018-07-11T11:03:04.015Z,5.55
2018-07-11T11:05:38.237Z,7.30
2018-07-11T11:08:13.072Z,6.95
2018-07-11T11:10:47.804Z,6.12
2018-07-11T11:13:23.264Z,7.30
2018-07-11T11:15:58.188Z,5.25
2018-07-11T11:18:33.047Z,6.92
2018-07-11T11:21:08.881Z,4.50
2018-07-11T11:23:43.730Z,6.15
2018-07-11T11:26:18.453Z,5.92
2018-07-11T11:28:54.260Z,5.90
2018-07-11T11:31:29.028Z,5.37
2018-07-11T11:34:03.868Z,7.33
2018-07-11T11:36:38.618Z,9.60
2018-07-11T11:39:13.460Z,9.35
2018-07-11T11:41:49.318Z,5.72
2018-07-11T11:44:24.256Z,8.48
2018-07-11T11:47:02.594Z,4.78
2018-07-11T11:49:37.376Z,7.47
2018-07-11T11:52:12.444Z,9.80
2018-07-11T11:54:47.163Z,8.98
2018-07-11T11:57:22.203Z,8.38
2018-07-11T11:59:56.956Z,6.17
2018-07-11T12:02:32.728Z,7.37
2018-07-11T12:05:07.476Z,6.60
2018-07-11T12:07:42.634Z,7.92
2018-07-11T12:10:17.736Z,7.95
2018-07-11T12:12:53.070Z,7.67
2018-07-11T12:15:27.881Z,6.30
2018-07-11T12:18:02.700Z,7.00
2018-07-11T12:20:38.618Z,8.80
2018-07-11T12:23:14.458Z,9.45
2018-07-11T12:26:05.799Z,7.03
2018-07-11T12:28:41.646Z,7.12
2018-07-11T12:31:16.478Z,9.45
2018-07-11T12:33:51.358Z,7.75
2018-07-11T12:36:27.130Z,8.60
2018-07-11T12:39:01.974Z,6.80
2018-07-11T12:41:37.219Z,6.85
2018-07-11T12:44:12.996Z,7.85
2018-07-11T12:46:47.794Z,7.15
2018-07-11T12:49:22.654Z,7.17
2018-07-11T12:51:58.440Z,10.05
2018-07-11T12:54:33.412Z,7.20
2018-07-11T12:57:08.726Z,8.13
2018-07-11T12:59:43.526Z,10.32
2018-07-11T13:02:18.408Z,11.10
2018-07-11T13:04:53.637Z,8.80
2018-07-11T13:07:28.411Z,9.08
2018-07-11T13:10:04.416Z,6.15
2018-07-11T13:12:39.143Z,7.30
2018-07-11T13:15:13.899Z,7.37
2018-07-11T13:17:49.632Z,9.43
2018-07-11T13:20:24.452Z,6.03
2018-07-11T13:22:59.192Z,10.88
2018-07-11T13:25:34.061Z,8.73
2018-07-11T13:28:09.823Z,4.97
2018-07-11T13:30:45.132Z,6.85
2018-07-11T13:33:19.856Z,8.33
2018-07-11T13:35:54.569Z,8.45
2018-07-11T13:38:29.342Z,8.85
2018-07-11T13:41:05.174Z,9.53
2018-07-11T13:43:39.971Z,7.80
2018-07-11T13:46:15.717Z,7.45
2018-07-11T13:48:51.683Z,9.00
2018-07-11T13:51:26.448Z,8.58
2018-07-11T13:54:01.300Z,7.80
2018-07-11T13:56:37.129Z,9.65
2018-07-11T13:59:11.891Z,7.97
2018-07-11T14:01:46.635Z,7.67
2018-07-11T14:04:21.448Z,7.92
2018-07-11T14:06:56.251Z,8.23
2018-07-11T14:09:30.567Z,6.05
2018-07-11T14:12:04.851Z,6.10
2018-07-11T14:14:40.176Z,6.25
2018-07-11T14:17:14.901Z,8.05
2018-07-11T14:19:49.729Z,6.60
2018-07-11T14:22:24.569Z,10.30
2018-07-11T14:24:59.437Z,7.33
2018-07-11T14:27:38.614Z,8.53
2018-07-11T14:30:13.152Z,10.23
2018-07-11T14:32:55.850Z,10.58
2018-07-11T14:35:30.661Z,8.75
2018-07-11T14:38:05.402Z,7.58
2018-07-11T14:40:40.179Z,10.25
2018-07-11T14:43:14.932Z,7.83
2018-07-11T14:45:49.786Z,8.35
2018-07-11T14:48:24.783Z,6.53
2018-07-11T14:51:01.355Z,6.70
2018-07-11T14:53:36.465Z,6.80
2018-07-11T14:56:10.756Z,6.33
2018-07-11T14:58:46.577Z,7.22
2018-07-11T15:01:23.042Z,7.92
2018-07-11T15:03:57.805Z,8.38
2018-07-11T15:06:32.607Z,9.00
2018-07-11T15:09:07.661Z,11.43
2018-07-11T15:11:41.894Z,8.18
2018-07-11T15:14:16.737Z,9.40
2018-07-11T15:16:51.009Z,8.63
2018-07-11T15:19:26.368Z,9.60
2018-07-11T15:22:01.127Z,12.33
2018-07-11T15:24:36.028Z,12.58
2018-07-11T15:27:11.796Z,10.78
2018-07-11T15:29:47.647Z,11.12
2018-07-11T15:32:22.544Z,12.50
2018-07-11T15:34:57.497Z,12.00
2018-07-11T15:37:32.340Z,14.43
2018-07-11T15:40:07.517Z,11.53
2018-07-11T15:42:44.512Z,15.93
2018-07-11T15:45:19.421Z,13.68
2018-07-11T15:47:54.416Z,14.40
2018-07-11T15:50:28.779Z,12.98
2018-07-11T15:53:03.623Z,13.68
2018-07-11T15:55:38.452Z,16.15
2018-07-11T15:58:15.320Z,12.35
2018-07-11T16:00:50.201Z,14.60
2018-07-11T16:03:26.705Z,14.30
2018-07-11T16:06:01.560Z,11.88
2018-07-11T16:08:36.426Z,13.98
2018-07-11T16:11:11.361Z,12.60
2018-07-11T16:13:47.108Z,15.20
2018-07-11T16:16:21.918Z,14.25
2018-07-11T16:18:56.738Z,20.57
2018-07-11T16:21:31.039Z,16.42
2018-07-11T16:24:05.883Z,19.95
2018-07-11T16:26:40.182Z,18.35
2018-07-11T16:29:15.036Z,18.05
2018-07-11T16:31:49.836Z,21.95
2018-07-11T16:34:24.644Z,15.53
2018-07-11T16:36:59.466Z,16.80
2018-07-11T16:39:34.413Z,17.75
2018-07-11T16:42:09.402Z,18.07
2018-07-11T16:44:44.679Z,17.32
2018-07-11T16:47:19.515Z,17.75
2018-07-11T16:49:54.361Z,18.00
2018-07-11T16:52:29.502Z,18.60
2018-07-11T16:55:05.317Z,20.97
2018-07-11T16:57:46.929Z,19.82
2018-07-11T17:00:28.796Z,18.32
2018-07-11T17:03:10.297Z,19.32
2018-07-11T17:05:53.732Z,14.38
2018-07-11T17:08:32.128Z,16.93
2018-07-11T17:11:21.392Z,15.95
2018-07-11T17:13:59.996Z,17.62
2018-07-11T17:16:42.553Z,15.55
2018-07-11T17:19:23.130Z,16.48
2018-07-11T17:22:00.776Z,18.20
2018-07-11T17:24:43.995Z,16.17
2018-07-11T17:27:22.672Z,17.57
2018-07-11T17:30:02.330Z,21.02
2018-07-11T17:32:37.184Z,20.17
2018-07-11T17:35:12.020Z,20.97
2018-07-11T17:37:47.003Z,22.85
2018-07-11T17:40:25.212Z,20.15
2018-07-11T17:43:00.065Z,19.90
2018-07-11T17:45:37.004Z,22.67
2018-07-11T17:48:24.538Z,20.00
2018-07-11T17:51:03.372Z,20.37
2018-07-11T17:53:38.977Z,26.12
2018-07-11T17:56:14.608Z,22.70
2018-07-11T17:58:56.185Z,26.12
2018-07-11T18:01:43.595Z,21.10
2018-07-11T18:04:32.342Z,27.95
2018-07-11T18:07:13.812Z,24.72
2018-07-11T18:09:59.992Z,23.30
2018-07-11T18:12:39.271Z,27.37
2018-07-11T18:15:36.707Z,24.25
2018-07-11T18:18:32.963Z,27.75
2018-07-11T18:21:17.518Z,26.52
2018-07-11T18:26:04.445Z,26.97
2018-07-11T18:28:47.264Z,23.20
2018-07-11T18:33:33.084Z,24.67
2018-07-11T18:36:17.379Z,26.07
2018-07-11T18:39:13.025Z,30.17
2018-07-11T18:44:08.480Z,29.75
2018-07-11T18:46:56.940Z,34.50
2018-07-11T18:49:39.320Z,28.92
2018-07-11T18:52:21.760Z,26.73
2018-07-11T18:55:01.455Z,40.50
2018-07-11T18:57:46.879Z,35.58
2018-07-11T19:00:29.173Z,39.65
2018-07-11T19:03:11.267Z,41.30
2018-07-11T19:05:51.640Z,33.95
2018-07-11T19:08:52.961Z,38.13
2018-07-11T19:11:41.376Z,46.75
2018-07-11T19:14:27.116Z,43.05
2018-07-11T19:17:10.572Z,38.67
2018-07-11T19:20:54.514Z,42.43
2018-07-11T19:23:39.977Z,46.55
2018-07-11T19:26:21.919Z,43.78
2018-07-11T19:29:10.244Z,50.75
2018-07-11T19:31:56.256Z,47.05
2018-07-11T19:34:49.293Z,44.20
2018-07-11T19:38:07.917Z,48.33
2018-07-11T19:40:50.999Z,56.18
2018-07-11T19:46:12.108Z,42.03
2018-07-11T19:49:02.370Z,49.10
2018-07-11T19:52:45.828Z,48.28
2018-07-11T19:56:04.348Z,58.65
2018-07-11T19:58:38.599Z,58.40
2018-07-11T20:01:14.452Z,52.20
2018-07-11T20:03:49.424Z,55.00
2018-07-11T20:06:24.252Z,57.20
2018-07-11T20:08:59.109Z,57.40
2018-07-11T20:11:34.001Z,61.40
2018-07-11T20:14:09.808Z,57.80
2018-07-11T20:16:44.648Z,51.77
2018-07-11T20:19:19.590Z,50.92
2018-07-11T20:21:54.452Z,52.60
2018-07-11T20:24:28.705Z,49.18
2018-07-11T20:27:03.542Z,48.68
2018-07-11T20:29:38.351Z,47.70
2018-07-11T20:32:13.243Z,38.95
2018-07-11T20:34:49.048Z,42.93
2018-07-11T20:37:24.939Z,39.48
2018-07-11T20:39:59.800Z,46.00
2018-07-11T20:42:34.667Z,41.08
2018-07-11T20:45:09.472Z,42.27
2018-07-11T20:47:44.340Z,43.30
2018-07-11T20:50:33.195Z,36.95
2018-07-11T20:55:55.676Z,35.55
2018-07-11T20:58:45.185Z,35.08
2018-07-11T21:01:32.032Z,38.90
2018-07-11T21:04:20.739Z,36.65
2018-07-11T21:07:22.235Z,40.17
2018-07-11T21:13:09.289Z,36.35
2018-07-11T21:15:55.521Z,37.35
2018-07-11T21:18:43.711Z,39.63
2018-07-11T21:21:18.535Z,35.95
2018-07-11T21:24:07.306Z,32.53
2018-07-11T21:29:49.045Z,29.87
2018-07-11T21:32:31.079Z,30.02
2018-07-11T21:35:06.935Z,25.40
2018-07-11T21:37:41.771Z,24.23
2018-07-11T21:40:16.624Z,27.65
2018-07-11T21:42:51.351Z,29.67
2018-07-11T21:45:26.212Z,27.98
2018-07-11T21:48:00.987Z,32.13
2018-07-11T21:50:35.721Z,24.10
2018-07-11T21:53:11.519Z,26.48
2018-07-11T21:55:46.295Z,32.60
2018-07-11T21:58:21.143Z,29.07
2018-07-11T22:01:02.181Z,28.77
2018-07-11T22:03:36.972Z,31.45
2018-07-11T22:06:12.764Z,31.57
2018-07-11T22:08:47.516Z,29.72
2018-07-11T22:11:23.308Z,34.70
2018-07-11T22:13:58.460Z,30.52
2018-07-11T22:16:33.257Z,34.38
2018-07-11T22:19:09.016Z,30.85
2018-07-11T22:21:42.524Z,25.72
2018-07-11T22:24:15.816Z,27.62
2018-07-11T22:26:49.053Z,29.07
2018-07-11T22:29:24.361Z,33.23
2018-07-11T22:31:57.602Z,29.00
2018-07-11T22:34:30.876Z,27.77
2018-07-11T22:37:04.117Z,32.17
2018-07-11T22:39:37.400Z,25.60
2018-07-11T22:42:10.667Z,27.02
2018-07-11T22:44:43.944Z,30.70
2018-07-11T22:47:17.389Z,28.50
2018-07-11T22:49:55.824Z,33.48
2018-07-11T22:52:31.335Z,29.27
2018-07-11T22:55:04.764Z,28.55
2018-07-11T22:57:38.064Z,28.75
2018-07-11T23:00:11.331Z,29.52
2018-07-11T23:02:44.633Z,35.65
2018-07-11T23:05:17.883Z,30.43
2018-07-11T23:07:51.460Z,30.20
2018-07-11T23:10:24.740Z,36.45
2018-07-11T23:12:58.054Z,31.70
2018-07-11T23:15:31.321Z,36.88
2018-07-11T23:18:04.616Z,33.90
2018-07-11T23:20:37.867Z,35.90
2018-07-11T23:23:12.277Z,30.30
2018-07-11T23:25:47.230Z,37.80
2018-07-11T23:28:20.543Z,35.75
2018-07-11T23:30:53.820Z,36.08
2018-07-11T23:33:27.096Z,32.35
2018-07-11T23:36:00.411Z,31.70
2018-07-11T23:38:33.749Z,32.90
2018-07-11T23:41:07.221Z,35.58
2018-07-11T23:43:41.553Z,29.05
2018-07-11T23:46:14.795Z,31.35
2018-07-11T23:48:48.093Z,30.82
2018-07-11T23:51:21.342Z,27.15
2018-07-11T23:53:54.620Z,30.05
2018-07-11T23:56:28.860Z,31.17
2018-07-11T23:59:02.187Z,25.57
